^^
Saratoga-Weather Station Historical Data
Daily Summary for June 13, 2021 Units:  Both    English   Metric
Daily Weekly Monthly Yearly Custom
  High: Low: Average:
Temperature: 41.7 °F /  5.4 °C 33.8 °F /  1 °C 36.9 °F /  2.7 °C
Dew Point: 40.6 °F /  4.8 °C 31.5 °F /  -0.3 °C 34.7 °F /  1.5 °C
Humidity: 96% 87% 92%
Wind Speed: 8.9mph /  14.3km/h - 2.2mph /  3.6km/h
Wind Gust: 11mph /  17.7km/h - -
Wind- - West
Pressure: 30.1 in /  1020.0 hPa 30 in /  1014.6 hPa -
Precipitation: 0.17 in /  4.3 mm    
Historical Graphs
 
 
Tabular Data for June 13, 2021
Time Temperature Dew Point Pressure Wind Wind Speed Wind Gust Humidity Rainfall Rate (Hourly) solar
00:01 36 °F /  2.2 °C 32.5 °F /  0.3 °C 30.1in /  1017.6hPa WNW 4mph /  6.4km/h 7mph /  11.3km/h 87% 0in /  0.0mm 0 W/m2
00:06 36 °F /  2.2 °C 32.5 °F /  0.3 °C 30.1in /  1017.6hPa NNW 0.9mph /  1.4km/h 6mph /  9.7km/h 87% 0in /  0.0mm 0 W/m2
00:11 36 °F /  2.2 °C 32.5 °F /  0.3 °C 30.1in /  1018.0hPa WNW 2.9mph /  4.7km/h 4mph /  6.4km/h 87% 0in /  0.0mm 0 W/m2
00:16 35.8 °F /  2.1 °C 32.5 °F /  0.3 °C 30.1in /  1018.0hPa WNW 2.9mph /  4.7km/h 4mph /  6.4km/h 88% 0in /  0.0mm 0 W/m2
00:21 35.6 °F /  2 °C 32.4 °F /  0.2 °C 30.1in /  1018.0hPa WNW 2.9mph /  4.7km/h 9mph /  14.5km/h 88% 0in /  0.0mm 0 W/m2
00:27 35.4 °F /  1.9 °C 32.2 °F /  0.1 °C 30.1in /  1018.0hPa NW 0.9mph /  1.4km/h 6mph /  9.7km/h 88% 0in /  0.0mm 0 W/m2
00:32 35.1 °F /  1.7 °C 32.2 °F /  0.1 °C 30.1in /  1018.0hPa WNW 2.9mph /  4.7km/h 8mph /  12.9km/h 89% 0in /  0.0mm 0 W/m2
00:37 34.9 °F /  1.6 °C 32 °F /  0 °C 30.1in /  1018.0hPa West 0.9mph /  1.4km/h 4mph /  6.4km/h 89% 0in /  0.0mm 0 W/m2
00:42 34.9 °F /  1.6 °C 32.2 °F /  0.1 °C 30.1in /  1018.3hPa NW 4mph /  6.4km/h 8mph /  12.9km/h 90% 0in /  0.0mm 0 W/m2
00:47 35.1 °F /  1.7 °C 32.4 °F /  0.2 °C 30.1in /  1018.3hPa West 6mph /  9.7km/h 9mph /  14.5km/h 90% 0in /  0.0mm 0 W/m2
00:52 35.2 °F /  1.8 °C 32.5 °F /  0.3 °C 30.1in /  1018.3hPa WNW 2.9mph /  4.7km/h 6mph /  9.7km/h 90% 0in /  0.0mm 0 W/m2
00:57 35.2 °F /  1.8 °C 32.4 °F /  0.2 °C 30.1in /  1018.3hPa West 2.9mph /  4.7km/h 9mph /  14.5km/h 89% 0in /  0.0mm 0 W/m2
01:02 35.2 °F /  1.8 °C 32.4 °F /  0.2 °C 30.1in /  1018.3hPa WNW 4mph /  6.4km/h 5mph /  8km/h 89% 0in /  0.0mm 0 W/m2
01:07 35.2 °F /  1.8 °C 32.4 °F /  0.2 °C 30.1in /  1018.3hPa WNW 2.9mph /  4.7km/h 5mph /  8km/h 89% 0in /  0.0mm 0 W/m2
01:12 35.1 °F /  1.7 °C 32.2 °F /  0.1 °C 30.1in /  1018.3hPa West 2mph /  3.2km/h 6mph /  9.7km/h 89% 0in /  0.0mm 0 W/m2
01:17 35.1 °F /  1.7 °C 32.2 °F /  0.1 °C 30.1in /  1018.3hPa WNW 2mph /  3.2km/h 8mph /  12.9km/h 89% 0in /  0.0mm 0 W/m2
01:22 34.9 °F /  1.6 °C 32 °F /  0 °C 30.1in /  1018.0hPa WNW 4.9mph /  7.9km/h 8mph /  12.9km/h 89% 0in /  0.0mm 0 W/m2
01:27 34.9 °F /  1.6 °C 32 °F /  0 °C 30.1in /  1018.0hPa NW 2mph /  3.2km/h 6mph /  9.7km/h 89% 0in /  0.0mm 0 W/m2
01:32 34.9 °F /  1.6 °C 32 °F /  0 °C 30.1in /  1018.3hPa West 4mph /  6.4km/h 8mph /  12.9km/h 89% 0in /  0.0mm 0 W/m2
01:37 35.1 °F /  1.7 °C 32.2 °F /  0.1 °C 30.1in /  1018.3hPa WNW 2.9mph /  4.7km/h 9mph /  14.5km/h 89% 0in /  0.0mm 0 W/m2
01:42 35.1 °F /  1.7 °C 32.2 °F /  0.1 °C 30.1in /  1018.3hPa WNW 8.1mph /  13km/h 8mph /  12.9km/h 89% 0in /  0.0mm 0 W/m2
01:47 35.1 °F /  1.7 °C 32.2 °F /  0.1 °C 30.1in /  1018.3hPa WNW 2.9mph /  4.7km/h 11mph /  17.7km/h 89% 0in /  0.0mm 0 W/m2
01:52 34.9 °F /  1.6 °C 32 °F /  0 °C 30.1in /  1018.3hPa NW 2.9mph /  4.7km/h 8mph /  12.9km/h 89% 0in /  0.0mm 0 W/m2
01:57 34.9 °F /  1.6 °C 32 °F /  0 °C 30.1in /  1018.3hPa West 4mph /  6.4km/h 8mph /  12.9km/h 89% 0in /  0.0mm 0 W/m2
02:02 34.7 °F /  1.5 °C 31.8 °F /  -0.1 °C 30.1in /  1018.3hPa WSW 6.9mph /  11.1km/h 7mph /  11.3km/h 89% 0in /  0.0mm 0 W/m2
02:07 34.5 °F /  1.4 °C 31.8 °F /  -0.1 °C 30.1in /  1018.3hPa West 2.9mph /  4.7km/h 6mph /  9.7km/h 90% 0in /  0.0mm 0 W/m2
02:12 34.3 °F /  1.3 °C 31.6 °F /  -0.2 °C 30.1in /  1018.3hPa West 4mph /  6.4km/h 4mph /  6.4km/h 90% 0in /  0.0mm 0 W/m2
02:22 34.2 °F /  1.2 °C 31.5 °F /  -0.3 °C 30.1in /  1018.3hPa West 2mph /  3.2km/h 3mph /  4.8km/h 90% 0in /  0.0mm 0 W/m2
02:27 34 °F /  1.1 °C 31.6 °F /  -0.2 °C 30.1in /  1018.3hPa West 2.9mph /  4.7km/h 6mph /  9.7km/h 91% 0in /  0.0mm 0 W/m2
02:32 34 °F /  1.1 °C 31.6 °F /  -0.2 °C 30.1in /  1018.3hPa WNW 4mph /  6.4km/h 8mph /  12.9km/h 91% 0in /  0.0mm 0 W/m2
02:37 34.2 °F /  1.2 °C 31.8 °F /  -0.1 °C 30.1in /  1018.6hPa NW 2.9mph /  4.7km/h 4mph /  6.4km/h 91% 0in /  0.0mm 0 W/m2
02:42 34.2 °F /  1.2 °C 31.8 °F /  -0.1 °C 30.1in /  1018.6hPa WNW 2.9mph /  4.7km/h 6mph /  9.7km/h 91% 0in /  0.0mm 0 W/m2
02:47 34.3 °F /  1.3 °C 32 °F /  0 °C 30.1in /  1018.6hPa West 2.9mph /  4.7km/h 8mph /  12.9km/h 91% 0in /  0.0mm 0 W/m2
02:52 34.3 °F /  1.3 °C 32 °F /  0 °C 30.1in /  1018.6hPa West 4mph /  6.4km/h 8mph /  12.9km/h 91% 0in /  0.0mm 0 W/m2
02:57 34.3 °F /  1.3 °C 32 °F /  0 °C 30.1in /  1018.6hPa West 2.9mph /  4.7km/h 7mph /  11.3km/h 91% 0in /  0.0mm 0 W/m2
03:02 34.5 °F /  1.4 °C 32.2 °F /  0.1 °C 30.1in /  1018.6hPa West 2.9mph /  4.7km/h 6mph /  9.7km/h 91% 0in /  0.0mm 0 W/m2
03:07 34.3 °F /  1.3 °C 32 °F /  0 °C 30.1in /  1018.6hPa West 2.9mph /  4.7km/h 5mph /  8km/h 91% 0in /  0.0mm 0 W/m2
03:12 34.3 °F /  1.3 °C 32 °F /  0 °C 30.1in /  1018.6hPa WNW 2.9mph /  4.7km/h 7mph /  11.3km/h 91% 0in /  0.0mm 0 W/m2
03:17 34.2 °F /  1.2 °C 31.8 °F /  -0.1 °C 30.1in /  1018.6hPa WNW 2.9mph /  4.7km/h 6mph /  9.7km/h 91% 0in /  0.0mm 0 W/m2
03:22 34.2 °F /  1.2 °C 31.8 °F /  -0.1 °C 30.1in /  1018.6hPa WNW 0.9mph /  1.4km/h 7mph /  11.3km/h 91% 0in /  0.0mm 0 W/m2
03:27 34.2 °F /  1.2 °C 31.8 °F /  -0.1 °C 30.1in /  1018.6hPa West 2mph /  3.2km/h 2mph /  3.2km/h 91% 0in /  0.0mm 0 W/m2
03:32 34 °F /  1.1 °C 31.6 °F /  -0.2 °C 30.1in /  1019.0hPa NW 0.9mph /  1.4km/h 2mph /  3.2km/h 91% 0in /  0.0mm 0 W/m2
03:37 33.8 °F /  1 °C 31.5 °F /  -0.3 °C 30.1in /  1018.6hPa NW 2mph /  3.2km/h 3mph /  4.8km/h 91% 0in /  0.0mm 0 W/m2
03:42 33.8 °F /  1 °C 31.5 °F /  -0.3 °C 30.1in /  1019.0hPa North 4mph /  6.4km/h 4mph /  6.4km/h 91% 0in /  0.0mm 0 W/m2
03:47 34 °F /  1.1 °C 31.6 °F /  -0.2 °C 30.1in /  1019.0hPa NW 2.9mph /  4.7km/h 4mph /  6.4km/h 91% 0in /  0.0mm 0 W/m2
03:52 34 °F /  1.1 °C 31.6 °F /  -0.2 °C 30.1in /  1019.0hPa WNW 0.9mph /  1.4km/h 6mph /  9.7km/h 91% 0in /  0.0mm 0 W/m2
03:57 34 °F /  1.1 °C 31.6 °F /  -0.2 °C 30.1in /  1019.0hPa West 0.9mph /  1.4km/h 3mph /  4.8km/h 91% 0in /  0.0mm 0 W/m2
04:02 33.8 °F /  1 °C 31.5 °F /  -0.3 °C 30.1in /  1019.0hPa WSW 0.9mph /  1.4km/h 3mph /  4.8km/h 91% 0in /  0.0mm 0 W/m2
04:07 34 °F /  1.1 °C 31.8 °F /  -0.1 °C 30.1in /  1019.0hPa Calm   3mph /  4.8km/h 92% 0in /  0.0mm 0 W/m2
04:12 34 °F /  1.1 °C 31.8 °F /  -0.1 °C 30.1in /  1019.0hPa WNW 2mph /  3.2km/h 6mph /  9.7km/h 92% 0in /  0.0mm 0 W/m2
04:17 34 °F /  1.1 °C 31.6 °F /  -0.2 °C 30.1in /  1019.0hPa WNW 2.9mph /  4.7km/h 6mph /  9.7km/h 91% 0in /  0.0mm 0 W/m2
04:22 33.8 °F /  1 °C 31.5 °F /  -0.3 °C 30.1in /  1019.0hPa West 2mph /  3.2km/h 3mph /  4.8km/h 91% 0in /  0.0mm 0 W/m2
04:27 33.8 °F /  1 °C 31.6 °F /  -0.2 °C 30.1in /  1019.0hPa West 2.9mph /  4.7km/h 6mph /  9.7km/h 92% 0in /  0.0mm 0 W/m2
04:32 34 °F /  1.1 °C 31.8 °F /  -0.1 °C 30.1in /  1019.3hPa NW 4.9mph /  7.9km/h 7mph /  11.3km/h 92% 0in /  0.0mm 0 W/m2
04:37 34 °F /  1.1 °C 31.6 °F /  -0.2 °C 30.1in /  1019.3hPa WNW 2mph /  3.2km/h 4mph /  6.4km/h 91% 0in /  0.0mm 0 W/m2
04:42 34.2 °F /  1.2 °C 31.8 °F /  -0.1 °C 30.1in /  1019.3hPa WNW 2mph /  3.2km/h 4mph /  6.4km/h 91% 0in /  0.0mm 0 W/m2
04:47 34.2 °F /  1.2 °C 31.8 °F /  -0.1 °C 30.1in /  1019.3hPa West 2.9mph /  4.7km/h 6mph /  9.7km/h 91% 0in /  0.0mm 0 W/m2
04:52 34.2 °F /  1.2 °C 31.8 °F /  -0.1 °C 30.1in /  1019.3hPa West 2mph /  3.2km/h 4mph /  6.4km/h 91% 0in /  0.0mm 0 W/m2
04:57 34.2 °F /  1.2 °C 31.8 °F /  -0.1 °C 30.1in /  1019.3hPa WSW 2.9mph /  4.7km/h 7mph /  11.3km/h 91% 0in /  0.0mm 0 W/m2
05:02 34.2 °F /  1.2 °C 31.8 °F /  -0.1 °C 30.1in /  1019.3hPa West 2mph /  3.2km/h 7mph /  11.3km/h 91% 0in /  0.0mm 0 W/m2
05:07 34.2 °F /  1.2 °C 31.8 °F /  -0.1 °C 30.1in /  1019.3hPa WSW 4mph /  6.4km/h 8mph /  12.9km/h 91% 0in /  0.0mm 0 W/m2
05:12 34.3 °F /  1.3 °C 32 °F /  0 °C 30.1in /  1019.3hPa WNW 4mph /  6.4km/h 7mph /  11.3km/h 91% 0in /  0.0mm 0 W/m2
05:17 34.5 °F /  1.4 °C 32.2 °F /  0.1 °C 30.1in /  1019.3hPa WNW 8.1mph /  13km/h 9mph /  14.5km/h 91% 0in /  0.0mm 0 W/m2
05:22 34.9 °F /  1.6 °C 32.5 °F /  0.3 °C 30.1in /  1019.6hPa West 6.9mph /  11.1km/h 7mph /  11.3km/h 91% 0in /  0.0mm 0 W/m2
05:27 34.9 °F /  1.6 °C 32.5 °F /  0.3 °C 30.1in /  1019.3hPa West 2.9mph /  4.7km/h 9mph /  14.5km/h 91% 0in /  0.0mm 0 W/m2
05:32 35.1 °F /  1.7 °C 32.7 °F /  0.4 °C 30.1in /  1019.3hPa West 2.9mph /  4.7km/h 6mph /  9.7km/h 91% 0in /  0.0mm 0 W/m2
05:37 35.1 °F /  1.7 °C 32.7 °F /  0.4 °C 30.1in /  1019.3hPa West 2.9mph /  4.7km/h 8mph /  12.9km/h 91% 0in /  0.0mm 0 W/m2
05:42 35.2 °F /  1.8 °C 32.5 °F /  0.3 °C 30.1in /  1019.3hPa WNW 4mph /  6.4km/h 7mph /  11.3km/h 90% 0in /  0.0mm 0 W/m2
05:47 35.2 °F /  1.8 °C 32.5 °F /  0.3 °C 30.1in /  1019.3hPa WNW 2mph /  3.2km/h 7mph /  11.3km/h 90% 0in /  0.0mm 0 W/m2
05:52 35.2 °F /  1.8 °C 32.5 °F /  0.3 °C 30.1in /  1019.6hPa WNW 2.9mph /  4.7km/h 7mph /  11.3km/h 90% 0in /  0.0mm 0 W/m2
05:58 35.2 °F /  1.8 °C 32.5 °F /  0.3 °C 30.1in /  1019.6hPa West 2.9mph /  4.7km/h 6mph /  9.7km/h 90% 0in /  0.0mm 0 W/m2
06:03 35.2 °F /  1.8 °C 32.5 °F /  0.3 °C 30.1in /  1019.6hPa WNW 2mph /  3.2km/h 7mph /  11.3km/h 90% 0in /  0.0mm 0 W/m2
06:08 35.2 °F /  1.8 °C 32.5 °F /  0.3 °C 30.1in /  1019.6hPa West 4mph /  6.4km/h 4mph /  6.4km/h 90% 0in /  0.0mm 0 W/m2
06:13 35.2 °F /  1.8 °C 32.5 °F /  0.3 °C 30.1in /  1019.6hPa NW 0.9mph /  1.4km/h 2mph /  3.2km/h 90% 0in /  0.0mm 0 W/m2
06:18 35.2 °F /  1.8 °C 32.5 °F /  0.3 °C 30.1in /  1019.6hPa WNW 0.9mph /  1.4km/h 3mph /  4.8km/h 90% 0in /  0.0mm 0 W/m2
06:23 35.2 °F /  1.8 °C 32.9 °F /  0.5 °C 30.1in /  1019.6hPa WNW 2mph /  3.2km/h 3mph /  4.8km/h 91% 0in /  0.0mm 0 W/m2
06:28 35.1 °F /  1.7 °C 32.7 °F /  0.4 °C 30.1in /  1019.6hPa West 0.9mph /  1.4km/h 3mph /  4.8km/h 91% 0in /  0.0mm 0 W/m2
06:33 35.1 °F /  1.7 °C 32.7 °F /  0.4 °C 30.1in /  1019.3hPa West 6.9mph /  11.1km/h 7mph /  11.3km/h 91% 0in /  0.0mm 0 W/m2
06:38 35.2 °F /  1.8 °C 32.9 °F /  0.5 °C 30.1in /  1019.3hPa West 2.9mph /  4.7km/h 4mph /  6.4km/h 91% 0in /  0.0mm 0 W/m2
06:43 35.4 °F /  1.9 °C 32.7 °F /  0.4 °C 30.1in /  1019.3hPa West 2.9mph /  4.7km/h 4mph /  6.4km/h 90% 0in /  0.0mm 0 W/m2
06:48 35.4 °F /  1.9 °C 32.7 °F /  0.4 °C 30.1in /  1019.3hPa WNW 0.9mph /  1.4km/h 4mph /  6.4km/h 90% 0in /  0.0mm 0 W/m2
06:53 35.2 °F /  1.8 °C 32.5 °F /  0.3 °C 30.1in /  1019.6hPa NW 0.9mph /  1.4km/h 3mph /  4.8km/h 90% 0in /  0.0mm 0 W/m2
06:58 35.1 °F /  1.7 °C 32.4 °F /  0.2 °C 30.1in /  1019.6hPa NW 0.9mph /  1.4km/h 4mph /  6.4km/h 90% 0in /  0.0mm 0 W/m2
07:03 35.1 °F /  1.7 °C 32.7 °F /  0.4 °C 30.1in /  1019.3hPa Calm   1mph /  1.6km/h 91% 0in /  0.0mm 0 W/m2
07:08 34.9 °F /  1.6 °C 32.5 °F /  0.3 °C 30.1in /  1019.6hPa Calm   2mph /  3.2km/h 91% 0in /  0.0mm 0 W/m2
07:13 34.7 °F /  1.5 °C 32.4 °F /  0.2 °C 30.1in /  1019.6hPa West 2mph /  3.2km/h 3mph /  4.8km/h 91% 0in /  0.0mm 0 W/m2
07:18 34.5 °F /  1.4 °C 32.2 °F /  0.1 °C 30.1in /  1019.6hPa WNW 0.9mph /  1.4km/h 3mph /  4.8km/h 91% 0in /  0.0mm 0 W/m2
07:23 34.5 °F /  1.4 °C 32.4 °F /  0.2 °C 30.1in /  1019.6hPa WNW 2mph /  3.2km/h 5mph /  8km/h 92% 0in /  0.0mm 0 W/m2
07:28 34.7 °F /  1.5 °C 32.5 °F /  0.3 °C 30.1in /  1019.6hPa West 2mph /  3.2km/h 6mph /  9.7km/h 92% 0in /  0.0mm 0 W/m2
07:33 34.9 °F /  1.6 °C 32.5 °F /  0.3 °C 30.1in /  1019.6hPa WSW 2mph /  3.2km/h 6mph /  9.7km/h 91% 0in /  0.0mm 0 W/m2
07:38 34.9 °F /  1.6 °C 32.5 °F /  0.3 °C 30.1in /  1019.6hPa WNW 2mph /  3.2km/h 4mph /  6.4km/h 91% 0in /  0.0mm 0 W/m2
07:43 34.7 °F /  1.5 °C 32.4 °F /  0.2 °C 30.1in /  1019.6hPa WNW 0.9mph /  1.4km/h 6mph /  9.7km/h 91% 0in /  0.0mm 0 W/m2
07:48 34.7 °F /  1.5 °C 32.4 °F /  0.2 °C 30.1in /  1019.6hPa WSW 4mph /  6.4km/h 8mph /  12.9km/h 91% 0in /  0.0mm 0 W/m2
07:53 34.7 °F /  1.5 °C 32.4 °F /  0.2 °C 30.1in /  1019.6hPa West 2.9mph /  4.7km/h 4mph /  6.4km/h 91% 0in /  0.0mm 0 W/m2
07:58 34.5 °F /  1.4 °C 32.2 °F /  0.1 °C 30.1in /  1019.6hPa West 4mph /  6.4km/h 5mph /  8km/h 91% 0in /  0.0mm 0 W/m2
08:03 34.5 °F /  1.4 °C 32.2 °F /  0.1 °C 30.1in /  1019.3hPa WSW 0.9mph /  1.4km/h 6mph /  9.7km/h 91% 0in /  0.0mm 0 W/m2
08:08 34.5 °F /  1.4 °C 32.2 °F /  0.1 °C 30.1in /  1019.3hPa WNW 2mph /  3.2km/h 9mph /  14.5km/h 91% 0in /  0.0mm 0 W/m2
08:13 34.5 °F /  1.4 °C 32.2 °F /  0.1 °C 30.1in /  1019.6hPa WSW 2.9mph /  4.7km/h 7mph /  11.3km/h 91% 0in /  0.0mm 0 W/m2
08:18 34.5 °F /  1.4 °C 32.2 °F /  0.1 °C 30.1in /  1019.6hPa WNW 2.9mph /  4.7km/h 9mph /  14.5km/h 91% 0in /  0.0mm 0 W/m2
08:23 34.3 °F /  1.3 °C 32 °F /  0 °C 30.1in /  1019.6hPa WSW 6.9mph /  11.1km/h 7mph /  11.3km/h 91% 0in /  0.0mm 0 W/m2
08:28 34.3 °F /  1.3 °C 32 °F /  0 °C 30.1in /  1019.6hPa WNW 4mph /  6.4km/h 9mph /  14.5km/h 91% 0in /  0.0mm 0 W/m2
08:33 34.3 °F /  1.3 °C 32 °F /  0 °C 30.1in /  1019.6hPa West 2mph /  3.2km/h 4mph /  6.4km/h 91% 0in /  0.0mm 0 W/m2
08:38 34.3 °F /  1.3 °C 32 °F /  0 °C 30.1in /  1019.6hPa NW 4.9mph /  7.9km/h 8mph /  12.9km/h 91% 0in /  0.0mm 5 W/m2
08:43 34.3 °F /  1.3 °C 32 °F /  0 °C 30.1in /  1019.6hPa West 8.9mph /  14.3km/h 9mph /  14.5km/h 91% 0in /  0.0mm 7 W/m2
08:48 34.3 °F /  1.3 °C 32 °F /  0 °C 30.1in /  1019.6hPa WNW 4mph /  6.4km/h 8mph /  12.9km/h 91% 0in /  0.0mm 9 W/m2
08:53 34.3 °F /  1.3 °C 32 °F /  0 °C 30.1in /  1019.6hPa West 6mph /  9.7km/h 8mph /  12.9km/h 91% 0in /  0.0mm 12 W/m2
08:58 34.3 °F /  1.3 °C 32 °F /  0 °C 30.1in /  1019.6hPa West 2.9mph /  4.7km/h 8mph /  12.9km/h 91% 0in /  0.0mm 16 W/m2
09:03 34.3 °F /  1.3 °C 32 °F /  0 °C 30.1in /  1019.6hPa WSW 4.9mph /  7.9km/h 9mph /  14.5km/h 91% 0in /  0.0mm 19 W/m2
09:08 34.3 °F /  1.3 °C 31.6 °F /  -0.2 °C 30.1in /  1019.6hPa West 4mph /  6.4km/h 8mph /  12.9km/h 90% 0in /  0.0mm 23 W/m2
09:13 34.3 °F /  1.3 °C 31.6 °F /  -0.2 °C 30.1in /  1019.6hPa West 2mph /  3.2km/h 6mph /  9.7km/h 90% 0in /  0.0mm 26 W/m2
09:18 34.3 °F /  1.3 °C 32 °F /  0 °C 30.1in /  1019.6hPa WNW 2mph /  3.2km/h 7mph /  11.3km/h 91% 0in /  0.0mm 30 W/m2
09:23 34.2 °F /  1.2 °C 31.8 °F /  -0.1 °C 30.1in /  1019.6hPa WNW 2.9mph /  4.7km/h 5mph /  8km/h 91% 0in /  0.0mm 33 W/m2
09:28 34.2 °F /  1.2 °C 31.8 °F /  -0.1 °C 30.1in /  1020.0hPa West 8.9mph /  14.3km/h 10mph /  16.1km/h 91% 0in /  0.0mm 35 W/m2
09:33 34.2 °F /  1.2 °C 31.8 °F /  -0.1 °C 30.1in /  1020.0hPa West 4mph /  6.4km/h 7mph /  11.3km/h 91% 0in /  0.0mm 39 W/m2
09:38 34.3 °F /  1.3 °C 32 °F /  0 °C 30.1in /  1020.0hPa SSW 4mph /  6.4km/h 6mph /  9.7km/h 91% 0in /  0.0mm 51 W/m2
09:43 34.3 °F /  1.3 °C 32 °F /  0 °C 30.1in /  1020.0hPa West 2.9mph /  4.7km/h 4mph /  6.4km/h 91% 0in /  0.0mm 53 W/m2
09:48 34.3 °F /  1.3 °C 31.6 °F /  -0.2 °C 30.1in /  1020.0hPa WNW 2.9mph /  4.7km/h 7mph /  11.3km/h 90% 0in /  0.0mm 51 W/m2
09:53 34.3 °F /  1.3 °C 32 °F /  0 °C 30.1in /  1020.0hPa WSW 2mph /  3.2km/h 7mph /  11.3km/h 91% 0in /  0.0mm 67 W/m2
09:58 34.3 °F /  1.3 °C 32 °F /  0 °C 30.1in /  1020.0hPa West 2.9mph /  4.7km/h 8mph /  12.9km/h 91% 0in /  0.0mm 72 W/m2
10:03 34.3 °F /  1.3 °C 32 °F /  0 °C 30.1in /  1020.0hPa West 4mph /  6.4km/h 7mph /  11.3km/h 91% 0in /  0.0mm 67 W/m2
10:08 34.5 °F /  1.4 °C 31.8 °F /  -0.1 °C 30.1in /  1020.0hPa SW 4.9mph /  7.9km/h 6mph /  9.7km/h 90% 0in /  0.0mm 72 W/m2
10:13 34.5 °F /  1.4 °C 31.8 °F /  -0.1 °C 30.1in /  1020.0hPa West 4mph /  6.4km/h 9mph /  14.5km/h 90% 0in /  0.0mm 77 W/m2
10:18 34.5 °F /  1.4 °C 31.8 °F /  -0.1 °C 30.1in /  1020.0hPa WSW 2mph /  3.2km/h 7mph /  11.3km/h 90% 0in /  0.0mm 88 W/m2
10:23 34.7 °F /  1.5 °C 32 °F /  0 °C 30.1in /  1020.0hPa West 6.9mph /  11.1km/h 8mph /  12.9km/h 90% 0in /  0.0mm 93 W/m2
10:28 34.9 °F /  1.6 °C 32.2 °F /  0.1 °C 30.1in /  1019.6hPa West 2mph /  3.2km/h 6mph /  9.7km/h 90% 0in /  0.0mm 95 W/m2
10:33 34.9 °F /  1.6 °C 32.2 °F /  0.1 °C 30.1in /  1020.0hPa West 2mph /  3.2km/h 6mph /  9.7km/h 90% 0in /  0.0mm 91 W/m2
10:38 34.9 °F /  1.6 °C 32.2 °F /  0.1 °C 30.1in /  1020.0hPa NW 4mph /  6.4km/h 6mph /  9.7km/h 90% 0in /  0.0mm 97 W/m2
10:43 35.1 °F /  1.7 °C 32.4 °F /  0.2 °C 30.1in /  1020.0hPa WNW 2.9mph /  4.7km/h 4mph /  6.4km/h 90% 0in /  0.0mm 97 W/m2
10:48 35.1 °F /  1.7 °C 32.4 °F /  0.2 °C 30.1in /  1020.0hPa West 4mph /  6.4km/h 4mph /  6.4km/h 90% 0in /  0.0mm 98 W/m2
10:53 35.1 °F /  1.7 °C 32.4 °F /  0.2 °C 30.1in /  1020.0hPa WNW 2.9mph /  4.7km/h 7mph /  11.3km/h 90% 0in /  0.0mm 111 W/m2
10:58 35.1 °F /  1.7 °C 32.4 °F /  0.2 °C 30.1in /  1020.0hPa West 2mph /  3.2km/h 3mph /  4.8km/h 90% 0in /  0.0mm 123 W/m2
11:03 35.2 °F /  1.8 °C 32.4 °F /  0.2 °C 30.1in /  1020.0hPa West 2.9mph /  4.7km/h 6mph /  9.7km/h 89% 0in /  0.0mm 128 W/m2
11:08 35.4 °F /  1.9 °C 32.5 °F /  0.3 °C 30.1in /  1019.6hPa Calm   3mph /  4.8km/h 89% 0in /  0.0mm 125 W/m2
11:13 35.4 °F /  1.9 °C 32.5 °F /  0.3 °C 30.1in /  1019.6hPa West 2mph /  3.2km/h 6mph /  9.7km/h 89% 0in /  0.0mm 130 W/m2
11:18 35.6 °F /  2 °C 32.7 °F /  0.4 °C 30.1in /  1019.6hPa WNW 2.9mph /  4.7km/h 4mph /  6.4km/h 89% 0in /  0.0mm 141 W/m2
11:23 35.8 °F /  2.1 °C 32.9 °F /  0.5 °C 30.1in /  1019.6hPa NW 0.9mph /  1.4km/h 3mph /  4.8km/h 89% 0in /  0.0mm 137 W/m2
11:28 36 °F /  2.2 °C 33.1 °F /  0.6 °C 30.1in /  1019.6hPa SW 2mph /  3.2km/h 3mph /  4.8km/h 89% 0in /  0.0mm 146 W/m2
11:33 36 °F /  2.2 °C 33.1 °F /  0.6 °C 30.1in /  1020.0hPa WNW 2.9mph /  4.7km/h 4mph /  6.4km/h 89% 0in /  0.0mm 132 W/m2
11:38 36.1 °F /  2.3 °C 32.9 °F /  0.5 °C 30.1in /  1019.6hPa West 0.9mph /  1.4km/h 4mph /  6.4km/h 88% 0in /  0.0mm 139 W/m2
11:43 36.1 °F /  2.3 °C 32.9 °F /  0.5 °C 30.1in /  1019.6hPa WNW 2mph /  3.2km/h 3mph /  4.8km/h 88% 0in /  0.0mm 130 W/m2
11:48 36.1 °F /  2.3 °C 32.9 °F /  0.5 °C 30.1in /  1019.6hPa WNW 0.9mph /  1.4km/h 2mph /  3.2km/h 88% 0in /  0.0mm 139 W/m2
11:53 36.1 °F /  2.3 °C 32.9 °F /  0.5 °C 30.1in /  1019.6hPa West 0.9mph /  1.4km/h 3mph /  4.8km/h 88% 0in /  0.0mm 134 W/m2
11:58 36.1 °F /  2.3 °C 32.9 °F /  0.5 °C 30.1in /  1019.6hPa WNW 4mph /  6.4km/h 6mph /  9.7km/h 88% 0in /  0.0mm 127 W/m2
12:03 36.1 °F /  2.3 °C 32.9 °F /  0.5 °C 30.1in /  1019.6hPa WNW 2mph /  3.2km/h 6mph /  9.7km/h 88% 0in /  0.0mm 128 W/m2
12:08 36.1 °F /  2.3 °C 32.9 °F /  0.5 °C 30.1in /  1019.3hPa NNW 0.9mph /  1.4km/h 4mph /  6.4km/h 88% 0in /  0.0mm 116 W/m2
12:13 36.1 °F /  2.3 °C 32.9 °F /  0.5 °C 30.1in /  1019.3hPa ESE 0.9mph /  1.4km/h 7mph /  11.3km/h 88% 0in /  0.0mm 120 W/m2
12:18 36.1 °F /  2.3 °C 32.9 °F /  0.5 °C 30.1in /  1019.3hPa West 0.9mph /  1.4km/h 5mph /  8km/h 88% 0in /  0.0mm 120 W/m2
12:23 36.1 °F /  2.3 °C 32.9 °F /  0.5 °C 30.1in /  1019.3hPa NW 2.9mph /  4.7km/h 3mph /  4.8km/h 88% 0in /  0.0mm 130 W/m2
12:28 36.1 °F /  2.3 °C 32.9 °F /  0.5 °C 30.1in /  1019.0hPa ESE 0.9mph /  1.4km/h 7mph /  11.3km/h 88% 0in /  0.0mm 127 W/m2
12:33 36.1 °F /  2.3 °C 32.9 °F /  0.5 °C 30.1in /  1019.0hPa WSW 2mph /  3.2km/h 8mph /  12.9km/h 88% 0in /  0.0mm 120 W/m2
12:38 36.1 °F /  2.3 °C 32.9 °F /  0.5 °C 30.1in /  1019.0hPa NW 4mph /  6.4km/h 8mph /  12.9km/h 88% 0in /  0.0mm 118 W/m2
12:43 36.1 °F /  2.3 °C 32.9 °F /  0.5 °C 30.1in /  1019.0hPa Calm   3mph /  4.8km/h 88% 0in /  0.0mm 125 W/m2
12:48 36.1 °F /  2.3 °C 33.3 °F /  0.7 °C 30.1in /  1019.0hPa WNW 0.9mph /  1.4km/h 4mph /  6.4km/h 89% 0in /  0.0mm 116 W/m2
12:53 36.3 °F /  2.4 °C 33.4 °F /  0.8 °C 30.1in /  1019.0hPa North 0.9mph /  1.4km/h 4mph /  6.4km/h 89% 0in /  0.0mm 111 W/m2
12:58 36.3 °F /  2.4 °C 33.4 °F /  0.8 °C 30.1in /  1018.6hPa North 4mph /  6.4km/h 5mph /  8km/h 89% 0in /  0.0mm 114 W/m2
13:03 36.3 °F /  2.4 °C 33.4 °F /  0.8 °C 30.1in /  1018.6hPa NW 0.9mph /  1.4km/h 6mph /  9.7km/h 89% 0in /  0.0mm 116 W/m2
13:08 36.3 °F /  2.4 °C 33.4 °F /  0.8 °C 30.1in /  1018.6hPa NNW 0.9mph /  1.4km/h 4mph /  6.4km/h 89% 0in /  0.0mm 107 W/m2
13:13 36.5 °F /  2.5 °C 33.6 °F /  0.9 °C 30.1in /  1018.3hPa Calm   4mph /  6.4km/h 89% 0in /  0.0mm 111 W/m2
13:18 36.7 °F /  2.6 °C 33.8 °F /  1 °C 30.1in /  1018.3hPa West 0.9mph /  1.4km/h 3mph /  4.8km/h 89% 0in /  0.0mm 120 W/m2
13:23 36.7 °F /  2.6 °C 33.8 °F /  1 °C 30.1in /  1018.3hPa Calm   1mph /  1.6km/h 89% 0in /  0.0mm 121 W/m2
13:28 36.9 °F /  2.7 °C 34 °F /  1.1 °C 30.1in /  1018.0hPa WNW 2.9mph /  4.7km/h 3mph /  4.8km/h 89% 0in /  0.0mm 102 W/m2
13:33 37 °F /  2.8 °C 33.8 °F /  1 °C 30.1in /  1018.0hPa Calm   2mph /  3.2km/h 88% 0in /  0.0mm 88 W/m2
13:38 37 °F /  2.8 °C 34.2 °F /  1.2 °C 30.1in /  1018.0hPa Calm   1mph /  1.6km/h 89% 0in /  0.0mm 74 W/m2
13:43 37.2 °F /  2.9 °C 34 °F /  1.1 °C 30.1in /  1018.0hPa WNW 2mph /  3.2km/h 4mph /  6.4km/h 88% 0in /  0.0mm 69 W/m2
13:48 37.2 °F /  2.9 °C 34 °F /  1.1 °C 30.1in /  1018.0hPa Calm   2mph /  3.2km/h 88% 0in /  0.0mm 70 W/m2
13:53 37.2 °F /  2.9 °C 34 °F /  1.1 °C 30.1in /  1018.0hPa Calm   4mph /  6.4km/h 88% 0in /  0.0mm 60 W/m2
13:58 37 °F /  2.8 °C 33.8 °F /  1 °C 30.1in /  1017.6hPa NW 0.9mph /  1.4km/h 3mph /  4.8km/h 88% 0in /  0.0mm 54 W/m2
14:03 37 °F /  2.8 °C 34.2 °F /  1.2 °C 30.1in /  1017.6hPa Calm     89% 0in /  0.0mm 49 W/m2
14:08 37 °F /  2.8 °C 33.8 °F /  1 °C 30.1in /  1017.6hPa WNW 0.9mph /  1.4km/h 2mph /  3.2km/h 88% 0in /  0.0mm 47 W/m2
14:13 37 °F /  2.8 °C 34.2 °F /  1.2 °C 30in /  1017.3hPa Calm   3mph /  4.8km/h 89% 0in /  0.0mm 51 W/m2
14:18 37 °F /  2.8 °C 34.2 °F /  1.2 °C 30in /  1017.3hPa Calm   1mph /  1.6km/h 89% 0in /  0.0mm 56 W/m2
14:23 37 °F /  2.8 °C 34.2 °F /  1.2 °C 30in /  1016.9hPa Calm   2mph /  3.2km/h 89% 0in /  0.0mm 54 W/m2
14:28 37 °F /  2.8 °C 34.2 °F /  1.2 °C 30in /  1016.9hPa WSW 2.9mph /  4.7km/h 4mph /  6.4km/h 89% 0in /  0.0mm 53 W/m2
14:33 37.2 °F /  2.9 °C 34.3 °F /  1.3 °C 30in /  1016.9hPa Calm   2mph /  3.2km/h 89% 0in /  0.0mm 49 W/m2
14:39 37.2 °F /  2.9 °C 34.3 °F /  1.3 °C 30in /  1016.9hPa Calm     89% 0in /  0.0mm 51 W/m2
14:44 37.2 °F /  2.9 °C 34.3 °F /  1.3 °C 30in /  1016.9hPa Calm     89% 0in /  0.0mm 37 W/m2
14:49 37.4 °F /  3 °C 34.5 °F /  1.4 °C 30in /  1016.9hPa Calm   1mph /  1.6km/h 89% 0in /  0.0mm 37 W/m2
14:54 37.6 °F /  3.1 °C 34.7 °F /  1.5 °C 30in /  1016.6hPa Calm     89% 0in /  0.0mm 46 W/m2
14:59 37.6 °F /  3.1 °C 34.7 °F /  1.5 °C 30in /  1016.6hPa NE 0.9mph /  1.4km/h 1mph /  1.6km/h 89% 0in /  0.0mm 51 W/m2
15:04 37.8 °F /  3.2 °C 35.1 °F /  1.7 °C 30in /  1016.6hPa NE 2.9mph /  4.7km/h 3mph /  4.8km/h 90% 0in /  0.0mm 42 W/m2
15:09 37.9 °F /  3.3 °C 35.2 °F /  1.8 °C 30in /  1016.6hPa NE 0.9mph /  1.4km/h 5mph /  8km/h 90% 0in /  0.0mm 37 W/m2
15:19 38.1 °F /  3.4 °C 35.4 °F /  1.9 °C 30in /  1016.6hPa Calm   5mph /  8km/h 90% 0in /  0.0mm 39 W/m2
15:24 38.1 °F /  3.4 °C 35.4 °F /  1.9 °C 30in /  1016.6hPa Calm   2mph /  3.2km/h 90% 0in /  0.0mm 40 W/m2
15:29 38.3 °F /  3.5 °C 35.6 °F /  2 °C 30in /  1016.6hPa NW 2.9mph /  4.7km/h 6mph /  9.7km/h 90% 0in /  0.0mm 42 W/m2
15:34 38.3 °F /  3.5 °C 36 °F /  2.2 °C 30in /  1016.6hPa SW 2mph /  3.2km/h 5mph /  8km/h 91% 0in /  0.0mm 44 W/m2
15:39 38.5 °F /  3.6 °C 36.1 °F /  2.3 °C 30in /  1016.6hPa NW 0.9mph /  1.4km/h 3mph /  4.8km/h 91% 0in /  0.0mm 37 W/m2
15:44 38.5 °F /  3.6 °C 36.1 °F /  2.3 °C 30in /  1016.3hPa Calm   5mph /  8km/h 91% 0in /  0.0mm 28 W/m2
15:49 38.5 °F /  3.6 °C 36.1 °F /  2.3 °C 30in /  1016.6hPa NW 0.9mph /  1.4km/h 2mph /  3.2km/h 91% 0in /  0.0mm 26 W/m2
15:54 38.5 °F /  3.6 °C 36.3 °F /  2.4 °C 30in /  1016.6hPa WNW 2.9mph /  4.7km/h 5mph /  8km/h 92% 0in /  0.0mm 21 W/m2
15:59 38.5 °F /  3.6 °C 36.3 °F /  2.4 °C 30in /  1016.6hPa WNW 0.9mph /  1.4km/h 3mph /  4.8km/h 92% 0in /  0.0mm 16 W/m2
16:04 38.5 °F /  3.6 °C 36.3 °F /  2.4 °C 30in /  1016.6hPa NW 0.9mph /  1.4km/h 4mph /  6.4km/h 92% 0in /  0.0mm 16 W/m2
16:09 38.5 °F /  3.6 °C 36.7 °F /  2.6 °C 30in /  1016.3hPa NNW 2.9mph /  4.7km/h 4mph /  6.4km/h 93% 0in /  0.0mm 16 W/m2
16:14 38.5 °F /  3.6 °C 36.7 °F /  2.6 °C 30in /  1016.3hPa West 0.9mph /  1.4km/h 2mph /  3.2km/h 93% 0in /  0.0mm 12 W/m2
16:19 38.7 °F /  3.7 °C 36.9 °F /  2.7 °C 30in /  1016.3hPa NW 0.9mph /  1.4km/h 2mph /  3.2km/h 93% 0.01in /  0.2mm 11 W/m2
16:24 38.5 °F /  3.6 °C 36.9 °F /  2.7 °C 30in /  1016.3hPa NW 0.9mph /  1.4km/h 2mph /  3.2km/h 94% 0.01in /  0.2mm 9 W/m2
16:29 38.5 °F /  3.6 °C 36.9 °F /  2.7 °C 30in /  1016.3hPa South 0.9mph /  1.4km/h 1mph /  1.6km/h 94% 0.02in /  0.5mm 9 W/m2
16:34 38.5 °F /  3.6 °C 36.9 °F /  2.7 °C 30in /  1015.9hPa Calm   3mph /  4.8km/h 94% 0.02in /  0.5mm 5 W/m2
16:39 38.5 °F /  3.6 °C 36.9 °F /  2.7 °C 30in /  1015.9hPa Calm   1mph /  1.6km/h 94% 0.02in /  0.5mm 5 W/m2
16:44 38.7 °F /  3.7 °C 37 °F /  2.8 °C 30in /  1015.9hPa SW 0.9mph /  1.4km/h 2mph /  3.2km/h 94% 0.03in /  0.8mm 5 W/m2
16:49 38.7 °F /  3.7 °C 37 °F /  2.8 °C 30in /  1015.9hPa NW 0.9mph /  1.4km/h 2mph /  3.2km/h 94% 0.03in /  0.8mm 5 W/m2
16:54 38.7 °F /  3.7 °C 37 °F /  2.8 °C 30in /  1015.6hPa ENE 0.9mph /  1.4km/h 1mph /  1.6km/h 94% 0.03in /  0.8mm 9 W/m2
16:59 38.7 °F /  3.7 °C 37 °F /  2.8 °C 30in /  1015.6hPa North 0.9mph /  1.4km/h 2mph /  3.2km/h 94% 0.04in /  1.0mm 0 W/m2
17:04 38.7 °F /  3.7 °C 37 °F /  2.8 °C 30in /  1015.6hPa Calm   3mph /  4.8km/h 94% 0.04in /  1.0mm 0 W/m2
17:09 38.7 °F /  3.7 °C 37.4 °F /  3 °C 30in /  1015.6hPa Calm   1mph /  1.6km/h 95% 0.04in /  1.0mm 0 W/m2
17:14 38.7 °F /  3.7 °C 37.4 °F /  3 °C 30in /  1015.6hPa Calm   3mph /  4.8km/h 95% 0.04in /  1.0mm 0 W/m2
17:19 38.7 °F /  3.7 °C 37.4 °F /  3 °C 30in /  1015.2hPa SE 2.9mph /  4.7km/h 3mph /  4.8km/h 95% 0.03in /  0.8mm 0 W/m2
17:24 38.7 °F /  3.7 °C 37.4 °F /  3 °C 30in /  1015.2hPa Calm     95% 0.04in /  1.0mm 0 W/m2
17:29 38.7 °F /  3.7 °C 37.4 °F /  3 °C 30in /  1015.2hPa Calm     95% 0.03in /  0.8mm 0 W/m2
17:34 38.7 °F /  3.7 °C 37.4 °F /  3 °C 30in /  1015.2hPa Calm     95% 0.02in /  0.5mm 0 W/m2
17:39 38.7 °F /  3.7 °C 37.4 °F /  3 °C 30in /  1015.2hPa Calm     95% 0.02in /  0.5mm 0 W/m2
17:44 38.7 °F /  3.7 °C 37.4 °F /  3 °C 30in /  1015.2hPa Calm   2mph /  3.2km/h 95% 0.02in /  0.5mm 0 W/m2
17:49 38.7 °F /  3.7 °C 37.4 °F /  3 °C 30in /  1015.2hPa Calm     95% 0.02in /  0.5mm 0 W/m2
17:54 38.7 °F /  3.7 °C 37.4 °F /  3 °C 30in /  1014.9hPa Calm     95% 0.03in /  0.8mm 0 W/m2
17:59 38.7 °F /  3.7 °C 37.4 °F /  3 °C 30in /  1015.2hPa North 0.9mph /  1.4km/h 1mph /  1.6km/h 95% 0.02in /  0.5mm 0 W/m2
18:04 38.7 °F /  3.7 °C 37.4 °F /  3 °C 30in /  1015.2hPa Calm     95% 0.02in /  0.5mm 0 W/m2
18:09 38.7 °F /  3.7 °C 37.4 °F /  3 °C 30in /  1015.2hPa Calm   1mph /  1.6km/h 95% 0.02in /  0.5mm 0 W/m2
18:14 38.7 °F /  3.7 °C 37.4 °F /  3 °C 30in /  1014.9hPa Calm   1mph /  1.6km/h 95% 0.02in /  0.5mm 0 W/m2
18:19 38.7 °F /  3.7 °C 37.4 °F /  3 °C 30in /  1014.9hPa Calm     95% 0.03in /  0.8mm 0 W/m2
18:24 38.7 °F /  3.7 °C 37.4 °F /  3 °C 30in /  1014.9hPa Calm   1mph /  1.6km/h 95% 0.02in /  0.5mm 0 W/m2
18:29 38.7 °F /  3.7 °C 37.4 °F /  3 °C 30in /  1014.9hPa Calm   1mph /  1.6km/h 95% 0.02in /  0.5mm 0 W/m2
18:34 38.8 °F /  3.8 °C 37.8 °F /  3.2 °C 30in /  1014.9hPa NNW 0.9mph /  1.4km/h 3mph /  4.8km/h 96% 0.02in /  0.5mm 0 W/m2
18:39 38.8 °F /  3.8 °C 37.8 °F /  3.2 °C 30in /  1014.9hPa NNW 0.9mph /  1.4km/h 2mph /  3.2km/h 96% 0.02in /  0.5mm 0 W/m2
18:44 39 °F /  3.9 °C 37.9 °F /  3.3 °C 30in /  1014.9hPa WNW 2mph /  3.2km/h 3mph /  4.8km/h 96% 0.02in /  0.5mm 0 W/m2
18:49 39 °F /  3.9 °C 37.9 °F /  3.3 °C 30in /  1014.9hPa Calm   3mph /  4.8km/h 96% 0.02in /  0.5mm 0 W/m2
18:54 39.2 °F /  4 °C 38.1 °F /  3.4 °C 30in /  1014.9hPa West 0.9mph /  1.4km/h 2mph /  3.2km/h 96% 0.01in /  0.2mm 0 W/m2
18:59 39.4 °F /  4.1 °C 38.3 °F /  3.5 °C 30in /  1014.9hPa WNW 2mph /  3.2km/h 3mph /  4.8km/h 96% 0.01in /  0.2mm 0 W/m2
19:04 39.6 °F /  4.2 °C 38.5 °F /  3.6 °C 30in /  1014.9hPa WNW 2mph /  3.2km/h 2mph /  3.2km/h 96% 0.01in /  0.2mm 0 W/m2
19:09 39.7 °F /  4.3 °C 38.7 °F /  3.7 °C 30in /  1014.9hPa West 2mph /  3.2km/h 4mph /  6.4km/h 96% 0.02in /  0.5mm 0 W/m2
19:14 39.9 °F /  4.4 °C 38.8 °F /  3.8 °C 30in /  1014.9hPa West 4mph /  6.4km/h 10mph /  16.1km/h 96% 0.02in /  0.5mm 0 W/m2
19:19 40.1 °F /  4.5 °C 39 °F /  3.9 °C 30in /  1014.9hPa West 4mph /  6.4km/h 9mph /  14.5km/h 96% 0.01in /  0.2mm 0 W/m2
19:24 40.5 °F /  4.7 °C 39.4 °F /  4.1 °C 30in /  1014.6hPa WSW 4.9mph /  7.9km/h 8mph /  12.9km/h 96% 0.01in /  0.2mm 0 W/m2
19:29 40.5 °F /  4.7 °C 39.4 °F /  4.1 °C 30in /  1014.6hPa NW 2mph /  3.2km/h 9mph /  14.5km/h 96% 0.01in /  0.2mm 0 W/m2
19:34 40.6 °F /  4.8 °C 39.6 °F /  4.2 °C 30in /  1014.6hPa WNW 2.9mph /  4.7km/h 11mph /  17.7km/h 96% 0.01in /  0.2mm 0 W/m2
19:39 40.6 °F /  4.8 °C 39.6 °F /  4.2 °C 30in /  1014.6hPa WNW 2mph /  3.2km/h 4mph /  6.4km/h 96% 0.01in /  0.2mm 0 W/m2
19:44 40.6 °F /  4.8 °C 39.6 °F /  4.2 °C 30in /  1014.9hPa WNW 0.9mph /  1.4km/h 7mph /  11.3km/h 96% 0.01in /  0.2mm 0 W/m2
19:49 40.6 °F /  4.8 °C 39.6 °F /  4.2 °C 30in /  1014.9hPa NW 2mph /  3.2km/h 3mph /  4.8km/h 96% 0.01in /  0.2mm 0 W/m2
19:59 40.8 °F /  4.9 °C 39.7 °F /  4.3 °C 30in /  1014.9hPa WNW 2mph /  3.2km/h 3mph /  4.8km/h 96% 0.02in /  0.5mm 0 W/m2
20:04 41 °F /  5 °C 39.9 °F /  4.4 °C 30in /  1014.6hPa WNW 4mph /  6.4km/h 9mph /  14.5km/h 96% 0.02in /  0.5mm 0 W/m2
20:09 41.2 °F /  5.1 °C 40.1 °F /  4.5 °C 30in /  1014.6hPa West 2.9mph /  4.7km/h 4mph /  6.4km/h 96% 0.01in /  0.2mm 0 W/m2
20:14 41.2 °F /  5.1 °C 40.1 °F /  4.5 °C 30in /  1014.6hPa West 2.9mph /  4.7km/h 6mph /  9.7km/h 96% 0.01in /  0.2mm 0 W/m2
20:24 41.2 °F /  5.1 °C 40.1 °F /  4.5 °C 30in /  1014.6hPa West 4mph /  6.4km/h 4mph /  6.4km/h 96% 0.02in /  0.5mm 0 W/m2
20:29 41.2 °F /  5.1 °C 40.1 °F /  4.5 °C 30in /  1014.6hPa West 0.9mph /  1.4km/h 6mph /  9.7km/h 96% 0.02in /  0.5mm 0 W/m2
20:34 41.2 °F /  5.1 °C 40.1 °F /  4.5 °C 30in /  1014.6hPa WNW 2.9mph /  4.7km/h 4mph /  6.4km/h 96% 0.02in /  0.5mm 0 W/m2
20:39 41.2 °F /  5.1 °C 40.1 °F /  4.5 °C 30in /  1014.6hPa WNW 4mph /  6.4km/h 6mph /  9.7km/h 96% 0.02in /  0.5mm 0 W/m2
20:44 41.2 °F /  5.1 °C 40.1 °F /  4.5 °C 30in /  1014.6hPa West 2.9mph /  4.7km/h 4mph /  6.4km/h 96% 0.02in /  0.5mm 0 W/m2
20:49 41.2 °F /  5.1 °C 40.1 °F /  4.5 °C 30in /  1014.6hPa West 2mph /  3.2km/h 7mph /  11.3km/h 96% 0.02in /  0.5mm 0 W/m2
20:54 41.2 °F /  5.1 °C 40.1 °F /  4.5 °C 30in /  1014.6hPa NW 2.9mph /  4.7km/h 5mph /  8km/h 96% 0.02in /  0.5mm 0 W/m2
20:59 41.2 °F /  5.1 °C 40.1 °F /  4.5 °C 30in /  1014.9hPa West 2.9mph /  4.7km/h 7mph /  11.3km/h 96% 0.02in /  0.5mm 0 W/m2
21:04 41.2 °F /  5.1 °C 40.1 °F /  4.5 °C 30in /  1014.9hPa West 0.9mph /  1.4km/h 8mph /  12.9km/h 96% 0.02in /  0.5mm 0 W/m2
21:14 41.2 °F /  5.1 °C 40.1 °F /  4.5 °C 30in /  1014.6hPa WNW 2mph /  3.2km/h 8mph /  12.9km/h 96% 0.02in /  0.5mm 0 W/m2
21:19 41.4 °F /  5.2 °C 40.3 °F /  4.6 °C 30in /  1014.6hPa West 2.9mph /  4.7km/h 7mph /  11.3km/h 96% 0.02in /  0.5mm 0 W/m2
21:24 41.4 °F /  5.2 °C 40.3 °F /  4.6 °C 30in /  1014.9hPa WNW 2mph /  3.2km/h 8mph /  12.9km/h 96% 0.02in /  0.5mm 0 W/m2
21:29 41.2 °F /  5.1 °C 40.1 °F /  4.5 °C 30in /  1014.9hPa WNW 2mph /  3.2km/h 5mph /  8km/h 96% 0.02in /  0.5mm 0 W/m2
21:34 41.2 °F /  5.1 °C 40.1 °F /  4.5 °C 30in /  1014.9hPa WSW 2mph /  3.2km/h 7mph /  11.3km/h 96% 0.02in /  0.5mm 0 W/m2
21:39 41.4 °F /  5.2 °C 40.3 °F /  4.6 °C 30in /  1014.9hPa West 4mph /  6.4km/h 7mph /  11.3km/h 96% 0.03in /  0.8mm 0 W/m2
21:44 41.4 °F /  5.2 °C 40.3 °F /  4.6 °C 30in /  1014.9hPa WSW 2mph /  3.2km/h 6mph /  9.7km/h 96% 0.02in /  0.5mm 0 W/m2
21:49 41.4 °F /  5.2 °C 40.3 °F /  4.6 °C 30in /  1014.9hPa WNW 2.9mph /  4.7km/h 5mph /  8km/h 96% 0.02in /  0.5mm 0 W/m2
21:54 41.5 °F /  5.3 °C 40.5 °F /  4.7 °C 30in /  1014.9hPa NW 8.9mph /  14.3km/h 10mph /  16.1km/h 96% 0.03in /  0.8mm 0 W/m2
21:59 41.5 °F /  5.3 °C 40.5 °F /  4.7 °C 30in /  1014.9hPa WNW 2.9mph /  4.7km/h 7mph /  11.3km/h 96% 0.03in /  0.8mm 0 W/m2
22:04 41.5 °F /  5.3 °C 40.5 °F /  4.7 °C 30in /  1014.9hPa NW 4mph /  6.4km/h 10mph /  16.1km/h 96% 0.03in /  0.8mm 0 W/m2
22:09 41.5 °F /  5.3 °C 40.5 °F /  4.7 °C 30in /  1014.9hPa WNW 2.9mph /  4.7km/h 8mph /  12.9km/h 96% 0.02in /  0.5mm 0 W/m2
22:14 41.7 °F /  5.4 °C 40.6 °F /  4.8 °C 30in /  1014.9hPa West 2mph /  3.2km/h 6mph /  9.7km/h 96% 0.02in /  0.5mm 0 W/m2
22:19 41.7 °F /  5.4 °C 40.6 °F /  4.8 °C 30in /  1014.9hPa WNW 6mph /  9.7km/h 6mph /  9.7km/h 96% 0.03in /  0.8mm 0 W/m2
22:24 41.7 °F /  5.4 °C 40.5 °F /  4.7 °C 30in /  1014.9hPa West 0.9mph /  1.4km/h 4mph /  6.4km/h 95% 0.03in /  0.8mm 0 W/m2
22:29 41.7 °F /  5.4 °C 40.5 °F /  4.7 °C 30in /  1014.9hPa West 2mph /  3.2km/h 4mph /  6.4km/h 95% 0.02in /  0.5mm 0 W/m2
22:34 41.7 °F /  5.4 °C 40.5 °F /  4.7 °C 30in /  1015.2hPa WNW 2mph /  3.2km/h 4mph /  6.4km/h 95% 0.02in /  0.5mm 0 W/m2
22:39 41.7 °F /  5.4 °C 40.5 °F /  4.7 °C 30in /  1015.2hPa NW 2mph /  3.2km/h 4mph /  6.4km/h 95% 0.02in /  0.5mm 0 W/m2
22:44 41.7 °F /  5.4 °C 40.5 °F /  4.7 °C 30in /  1015.2hPa NW 2mph /  3.2km/h 3mph /  4.8km/h 95% 0.02in /  0.5mm 0 W/m2
22:49 41.7 °F /  5.4 °C 40.5 °F /  4.7 °C 30in /  1015.2hPa WNW 0.9mph /  1.4km/h 3mph /  4.8km/h 95% 0.02in /  0.5mm 0 W/m2
22:54 41.7 °F /  5.4 °C 40.5 °F /  4.7 °C 30in /  1015.2hPa WNW 2mph /  3.2km/h 2mph /  3.2km/h 95% 0.02in /  0.5mm 0 W/m2
22:59 41.5 °F /  5.3 °C 40.3 °F /  4.6 °C 30in /  1015.2hPa West 2mph /  3.2km/h 3mph /  4.8km/h 95% 0.02in /  0.5mm 0 W/m2
23:04 41.5 °F /  5.3 °C 40.3 °F /  4.6 °C 30in /  1015.2hPa WNW 2mph /  3.2km/h 3mph /  4.8km/h 95% 0.02in /  0.5mm 0 W/m2
23:09 41.5 °F /  5.3 °C 40.3 °F /  4.6 °C 30in /  1015.2hPa WSW 2.9mph /  4.7km/h 4mph /  6.4km/h 95% 0.02in /  0.5mm 0 W/m2
23:14 41.5 °F /  5.3 °C 40.3 °F /  4.6 °C 30in /  1015.2hPa WSW 2mph /  3.2km/h 4mph /  6.4km/h 95% 0.02in /  0.5mm 0 W/m2
23:19 41.5 °F /  5.3 °C 40.3 °F /  4.6 °C 30in /  1015.6hPa NW 2.9mph /  4.7km/h 4mph /  6.4km/h 95% 0.02in /  0.5mm 0 W/m2
23:24 41.5 °F /  5.3 °C 40.3 °F /  4.6 °C 30in /  1015.6hPa West 2.9mph /  4.7km/h 4mph /  6.4km/h 95% 0.02in /  0.5mm 0 W/m2
23:29 41.5 °F /  5.3 °C 40.3 °F /  4.6 °C 30in /  1015.6hPa West 2mph /  3.2km/h 6mph /  9.7km/h 95% 0.02in /  0.5mm 0 W/m2
23:34 41.5 °F /  5.3 °C 40.3 °F /  4.6 °C 30in /  1015.6hPa NW 2.9mph /  4.7km/h 7mph /  11.3km/h 95% 0.02in /  0.5mm 0 W/m2
23:39 41.5 °F /  5.3 °C 40.3 °F /  4.6 °C 30in /  1015.6hPa WSW 2mph /  3.2km/h 4mph /  6.4km/h 95% 0.02in /  0.5mm 0 W/m2
23:44 41.5 °F /  5.3 °C 40.3 °F /  4.6 °C 30in /  1015.6hPa WNW 2mph /  3.2km/h 7mph /  11.3km/h 95% 0.02in /  0.5mm 0 W/m2
23:49 41.4 °F /  5.2 °C 40.1 °F /  4.5 °C 30in /  1015.9hPa WNW 4.9mph /  7.9km/h 7mph /  11.3km/h 95% 0.02in /  0.5mm 0 W/m2
23:54 41.4 °F /  5.2 °C 40.1 °F /  4.5 °C 30in /  1015.9hPa West 2.9mph /  4.7km/h 4mph /  6.4km/h 95% 0.02in /  0.5mm 0 W/m2
23:59 41.4 °F /  5.2 °C 40.1 °F /  4.5 °C 30in /  1015.9hPa West 2mph /  3.2km/h 4mph /  6.4km/h 95% 0.02in /  0.5mm 0 W/m2
Juneau County Weather
Compliments of Weather Underground - 4 mb